sensor_id;sensor_type;location;lat;lon;timestamp;temperature;humidity
26254;DHT22;53339;51.378;0.094;2024-03-07T00:00:13;3.80;90.30
26254;DHT22;53339;51.378;0.094;2024-03-07T00:02:47;4.00;90.50
26254;DHT22;53339;51.378;0.094;2024-03-07T00:05:18;4.20;90.60
26254;DHT22;53339;51.378;0.094;2024-03-07T00:07:48;4.30;90.70
26254;DHT22;53339;51.378;0.094;2024-03-07T00:10:16;4.50;90.80
26254;DHT22;53339;51.378;0.094;2024-03-07T00:12:45;4.60;90.80
26254;DHT22;53339;51.378;0.094;2024-03-07T00:15:14;4.70;90.80
26254;DHT22;53339;51.378;0.094;2024-03-07T00:17:45;4.80;90.90
26254;DHT22;53339;51.378;0.094;2024-03-07T00:20:13;4.90;90.90
26254;DHT22;53339;51.378;0.094;2024-03-07T00:22:47;5.00;90.90
26254;DHT22;53339;51.378;0.094;2024-03-07T00:25:19;5.10;90.90
26254;DHT22;53339;51.378;0.094;2024-03-07T00:27:48;5.10;90.90
26254;DHT22;53339;51.378;0.094;2024-03-07T00:30:20;5.20;90.90
26254;DHT22;53339;51.378;0.094;2024-03-07T00:32:48;5.20;90.90
26254;DHT22;53339;51.378;0.094;2024-03-07T00:35:19;5.20;90.90
26254;DHT22;53339;51.378;0.094;2024-03-07T00:37:51;5.30;90.90
26254;DHT22;53339;51.378;0.094;2024-03-07T00:40:22;5.30;90.90
26254;DHT22;53339;51.378;0.094;2024-03-07T00:42:50;5.30;90.90
26254;DHT22;53339;51.378;0.094;2024-03-07T00:45:19;5.40;90.90
26254;DHT22;53339;51.378;0.094;2024-03-07T00:47:47;5.40;90.90
26254;DHT22;53339;51.378;0.094;2024-03-07T00:50:16;5.40;90.90
26254;DHT22;53339;51.378;0.094;2024-03-07T00:52:44;5.40;90.90
26254;DHT22;53339;51.378;0.094;2024-03-07T00:55:16;5.50;91.00
26254;DHT22;53339;51.378;0.094;2024-03-07T00:57:46;5.50;91.00
26254;DHT22;53339;51.378;0.094;2024-03-07T01:00:14;5.60;91.00
26254;DHT22;53339;51.378;0.094;2024-03-07T01:02:43;5.60;91.10
26254;DHT22;53339;51.378;0.094;2024-03-07T01:05:12;5.60;91.10
26254;DHT22;53339;51.378;0.094;2024-03-07T01:07:43;5.70;91.10
26254;DHT22;53339;51.378;0.094;2024-03-07T01:10:18;5.70;91.10
26254;DHT22;53339;51.378;0.094;2024-03-07T01:12:49;5.70;91.10
26254;DHT22;53339;51.378;0.094;2024-03-07T01:15:17;5.70;91.10
26254;DHT22;53339;51.378;0.094;2024-03-07T01:17:45;5.80;91.10
26254;DHT22;53339;51.378;0.094;2024-03-07T01:20:14;5.80;91.10
26254;DHT22;53339;51.378;0.094;2024-03-07T01:22:42;5.80;91.10
26254;DHT22;53339;51.378;0.094;2024-03-07T01:25:10;5.90;91.10
26254;DHT22;53339;51.378;0.094;2024-03-07T01:27:40;5.90;91.10
26254;DHT22;53339;51.378;0.094;2024-03-07T01:30:08;5.90;91.20
26254;DHT22;53339;51.378;0.094;2024-03-07T01:32:36;5.90;91.10
26254;DHT22;53339;51.378;0.094;2024-03-07T01:35:06;5.90;91.20
26254;DHT22;53339;51.378;0.094;2024-03-07T01:37:36;5.90;91.20
26254;DHT22;53339;51.378;0.094;2024-03-07T01:40:04;5.90;91.20
26254;DHT22;53339;51.378;0.094;2024-03-07T01:42:33;5.90;91.20
26254;DHT22;53339;51.378;0.094;2024-03-07T01:45:01;5.90;91.10
26254;DHT22;53339;51.378;0.094;2024-03-07T01:47:29;5.90;91.10
26254;DHT22;53339;51.378;0.094;2024-03-07T01:50:01;6.00;91.20
26254;DHT22;53339;51.378;0.094;2024-03-07T01:52:30;6.00;91.20
26254;DHT22;53339;51.378;0.094;2024-03-07T01:54:59;6.00;91.20
26254;DHT22;53339;51.378;0.094;2024-03-07T01:57:27;6.00;91.20
26254;DHT22;53339;51.378;0.094;2024-03-07T01:59:56;6.00;91.20
26254;DHT22;53339;51.378;0.094;2024-03-07T02:02:25;6.10;91.30
26254;DHT22;53339;51.378;0.094;2024-03-07T02:04:53;6.10;91.20
26254;DHT22;53339;51.378;0.094;2024-03-07T02:07:21;6.10;91.30
26254;DHT22;53339;51.378;0.094;2024-03-07T02:09:49;6.10;91.30
26254;DHT22;53339;51.378;0.094;2024-03-07T02:12:17;6.10;91.30
26254;DHT22;53339;51.378;0.094;2024-03-07T02:14:44;6.10;91.30
26254;DHT22;53339;51.378;0.094;2024-03-07T02:17:12;6.20;91.30
26254;DHT22;53339;51.378;0.094;2024-03-07T02:19:40;6.20;91.30
26254;DHT22;53339;51.378;0.094;2024-03-07T02:22:08;6.20;91.30
26254;DHT22;53339;51.378;0.094;2024-03-07T02:24:35;6.30;91.40
26254;DHT22;53339;51.378;0.094;2024-03-07T02:27:03;6.30;91.40
26254;DHT22;53339;51.378;0.094;2024-03-07T02:29:31;6.40;91.40
26254;DHT22;53339;51.378;0.094;2024-03-07T02:31:59;6.30;91.40
26254;DHT22;53339;51.378;0.094;2024-03-07T02:34:26;6.40;91.40
26254;DHT22;53339;51.378;0.094;2024-03-07T02:36:55;6.40;91.40
26254;DHT22;53339;51.378;0.094;2024-03-07T02:39:23;6.40;91.40
26254;DHT22;53339;51.378;0.094;2024-03-07T02:41:52;6.50;91.40
26254;DHT22;53339;51.378;0.094;2024-03-07T02:44:20;6.50;91.40
26254;DHT22;53339;51.378;0.094;2024-03-07T02:46:48;6.60;91.40
26254;DHT22;53339;51.378;0.094;2024-03-07T02:49:15;6.50;91.40
26254;DHT22;53339;51.378;0.094;2024-03-07T02:51:43;6.60;91.40
26254;DHT22;53339;51.378;0.094;2024-03-07T02:54:10;6.60;91.40
26254;DHT22;53339;51.378;0.094;2024-03-07T02:56:38;6.60;91.50
26254;DHT22;53339;51.378;0.094;2024-03-07T02:59:06;6.70;91.40
26254;DHT22;53339;51.378;0.094;2024-03-07T03:01:33;6.70;91.40
26254;DHT22;53339;51.378;0.094;2024-03-07T03:04:01;6.70;91.40
26254;DHT22;53339;51.378;0.094;2024-03-07T03:06:30;6.70;91.40
26254;DHT22;53339;51.378;0.094;2024-03-07T03:08:59;6.70;91.40
26254;DHT22;53339;51.378;0.094;2024-03-07T03:11:27;6.70;91.50
26254;DHT22;53339;51.378;0.094;2024-03-07T03:13:55;6.80;91.40
26254;DHT22;53339;51.378;0.094;2024-03-07T03:16:23;6.70;91.40
26254;DHT22;53339;51.378;0.094;2024-03-07T03:19:00;6.80;91.40
26254;DHT22;53339;51.378;0.094;2024-03-07T03:21:28;6.80;91.40
26254;DHT22;53339;51.378;0.094;2024-03-07T03:23:56;6.80;91.40
26254;DHT22;53339;51.378;0.094;2024-03-07T03:26:23;6.80;91.40
26254;DHT22;53339;51.378;0.094;2024-03-07T03:28:51;6.80;91.40
26254;DHT22;53339;51.378;0.094;2024-03-07T03:31:19;6.80;91.50
26254;DHT22;53339;51.378;0.094;2024-03-07T03:33:47;6.80;91.40
26254;DHT22;53339;51.378;0.094;2024-03-07T03:36:15;6.90;91.50
26254;DHT22;53339;51.378;0.094;2024-03-07T03:38:42;6.80;91.40
26254;DHT22;53339;51.378;0.094;2024-03-07T03:41:17;6.70;91.20
26254;DHT22;53339;51.378;0.094;2024-03-07T03:43:45;6.70;91.10
26254;DHT22;53339;51.378;0.094;2024-03-07T03:46:13;6.60;91.00
26254;DHT22;53339;51.378;0.094;2024-03-07T03:48:40;6.60;90.90
26254;DHT22;53339;51.378;0.094;2024-03-07T03:51:08;6.40;90.90
26254;DHT22;53339;51.378;0.094;2024-03-07T03:53:36;6.40;90.90
26254;DHT22;53339;51.378;0.094;2024-03-07T03:56:04;6.40;91.00
26254;DHT22;53339;51.378;0.094;2024-03-07T03:58:33;6.40;91.00
26254;DHT22;53339;51.378;0.094;2024-03-07T04:01:01;6.30;90.90
26254;DHT22;53339;51.378;0.094;2024-03-07T04:03:29;6.20;91.00
26254;DHT22;53339;51.378;0.094;2024-03-07T04:05:57;6.30;91.10
26254;DHT22;53339;51.378;0.094;2024-03-07T04:08:25;6.40;91.20
26254;DHT22;53339;51.378;0.094;2024-03-07T04:10:53;6.30;91.20
26254;DHT22;53339;51.378;0.094;2024-03-07T04:13:20;6.30;91.20
26254;DHT22;53339;51.378;0.094;2024-03-07T04:15:49;6.40;91.30
26254;DHT22;53339;51.378;0.094;2024-03-07T04:18:17;6.40;91.30
26254;DHT22;53339;51.378;0.094;2024-03-07T04:20:45;6.40;91.20
26254;DHT22;53339;51.378;0.094;2024-03-07T04:23:13;6.40;91.20
26254;DHT22;53339;51.378;0.094;2024-03-07T04:25:40;6.40;91.30
26254;DHT22;53339;51.378;0.094;2024-03-07T04:28:08;6.40;91.30
26254;DHT22;53339;51.378;0.094;2024-03-07T04:30:36;6.30;91.10
26254;DHT22;53339;51.378;0.094;2024-03-07T04:33:04;6.30;91.20
26254;DHT22;53339;51.378;0.094;2024-03-07T04:35:33;6.40;91.20
26254;DHT22;53339;51.378;0.094;2024-03-07T04:38:01;6.40;91.30
26254;DHT22;53339;51.378;0.094;2024-03-07T04:40:29;6.30;91.10
26254;DHT22;53339;51.378;0.094;2024-03-07T04:42:56;6.30;91.10
26254;DHT22;53339;51.378;0.094;2024-03-07T04:45:24;6.20;91.10
26254;DHT22;53339;51.378;0.094;2024-03-07T04:47:53;6.30;91.10
26254;DHT22;53339;51.378;0.094;2024-03-07T04:50:20;6.20;91.00
26254;DHT22;53339;51.378;0.094;2024-03-07T04:52:48;6.10;90.90
26254;DHT22;53339;51.378;0.094;2024-03-07T04:55:16;6.10;91.00
26254;DHT22;53339;51.378;0.094;2024-03-07T04:57:44;6.10;91.00
26254;DHT22;53339;51.378;0.094;2024-03-07T05:00:13;6.10;91.00
26254;DHT22;53339;51.378;0.094;2024-03-07T05:02:43;6.00;90.90
26254;DHT22;53339;51.378;0.094;2024-03-07T05:05:11;6.00;90.90
26254;DHT22;53339;51.378;0.094;2024-03-07T05:07:40;6.00;91.00
26254;DHT22;53339;51.378;0.094;2024-03-07T05:10:09;6.00;91.00
26254;DHT22;53339;51.378;0.094;2024-03-07T05:12:37;5.90;90.90
26254;DHT22;53339;51.378;0.094;2024-03-07T05:15:05;5.90;91.00
26254;DHT22;53339;51.378;0.094;2024-03-07T05:17:33;6.00;91.10
26254;DHT22;53339;51.378;0.094;2024-03-07T05:20:04;6.10;91.20
26254;DHT22;53339;51.378;0.094;2024-03-07T05:22:37;6.00;91.10
26254;DHT22;53339;51.378;0.094;2024-03-07T05:25:08;6.00;91.10
26254;DHT22;53339;51.378;0.094;2024-03-07T05:27:36;6.10;91.20
26254;DHT22;53339;51.378;0.094;2024-03-07T05:30:04;6.10;91.20
26254;DHT22;53339;51.378;0.094;2024-03-07T05:32:37;6.10;91.10
26254;DHT22;53339;51.378;0.094;2024-03-07T05:35:06;6.10;91.20
26254;DHT22;53339;51.378;0.094;2024-03-07T05:37:34;6.10;91.30
26254;DHT22;53339;51.378;0.094;2024-03-07T05:40:02;6.20;91.30
26254;DHT22;53339;51.378;0.094;2024-03-07T05:42:31;6.20;91.20
26254;DHT22;53339;51.378;0.094;2024-03-07T05:44:59;6.20;91.20
26254;DHT22;53339;51.378;0.094;2024-03-07T05:47:27;6.20;91.30
26254;DHT22;53339;51.378;0.094;2024-03-07T05:49:54;6.30;91.40
26254;DHT22;53339;51.378;0.094;2024-03-07T05:52:22;6.30;91.30
26254;DHT22;53339;51.378;0.094;2024-03-07T05:54:50;6.30;91.30
26254;DHT22;53339;51.378;0.094;2024-03-07T05:57:19;6.30;91.40
26254;DHT22;53339;51.378;0.094;2024-03-07T05:59:46;6.40;91.40
26254;DHT22;53339;51.378;0.094;2024-03-07T06:02:15;6.50;91.40
26254;DHT22;53339;51.378;0.094;2024-03-07T06:04:43;6.40;91.30
26254;DHT22;53339;51.378;0.094;2024-03-07T06:07:11;6.40;91.40
26254;DHT22;53339;51.378;0.094;2024-03-07T06:09:39;6.50;91.40
26254;DHT22;53339;51.378;0.094;2024-03-07T06:12:07;6.50;91.40
26254;DHT22;53339;51.378;0.094;2024-03-07T06:14:42;6.50;91.30
26254;DHT22;53339;51.378;0.094;2024-03-07T06:17:10;6.50;91.30
26254;DHT22;53339;51.378;0.094;2024-03-07T06:19:38;6.50;91.40
26254;DHT22;53339;51.378;0.094;2024-03-07T06:22:05;6.60;91.40
26254;DHT22;53339;51.378;0.094;2024-03-07T06:24:36;6.50;91.30
26254;DHT22;53339;51.378;0.094;2024-03-07T06:27:04;6.50;91.30
26254;DHT22;53339;51.378;0.094;2024-03-07T06:29:43;6.60;91.40
26254;DHT22;53339;51.378;0.094;2024-03-07T06:32:11;6.60;91.40
26254;DHT22;53339;51.378;0.094;2024-03-07T06:34:39;6.60;91.30
26254;DHT22;53339;51.378;0.094;2024-03-07T06:37:06;6.60;91.40
26254;DHT22;53339;51.378;0.094;2024-03-07T06:39:35;6.70;91.40
26254;DHT22;53339;51.378;0.094;2024-03-07T06:42:03;6.70;91.40
26254;DHT22;53339;51.378;0.094;2024-03-07T06:44:31;6.60;91.20
26254;DHT22;53339;51.378;0.094;2024-03-07T06:46:58;6.60;91.20
26254;DHT22;53339;51.378;0.094;2024-03-07T06:49:26;6.60;91.10
26254;DHT22;53339;51.378;0.094;2024-03-07T06:51:55;6.60;91.20
26254;DHT22;53339;51.378;0.094;2024-03-07T06:54:23;6.50;91.10
26254;DHT22;53339;51.378;0.094;2024-03-07T06:56:51;6.50;91.10
26254;DHT22;53339;51.378;0.094;2024-03-07T06:59:18;6.50;91.30
26254;DHT22;53339;51.378;0.094;2024-03-07T07:01:46;6.60;91.30
26254;DHT22;53339;51.378;0.094;2024-03-07T07:04:14;6.50;91.10
26254;DHT22;53339;51.378;0.094;2024-03-07T07:06:43;6.50;91.10
26254;DHT22;53339;51.378;0.094;2024-03-07T07:09:12;6.50;91.20
26254;DHT22;53339;51.378;0.094;2024-03-07T07:11:40;6.60;91.30
26254;DHT22;53339;51.378;0.094;2024-03-07T07:14:07;6.50;91.20
26254;DHT22;53339;51.378;0.094;2024-03-07T07:16:35;6.50;91.20
26254;DHT22;53339;51.378;0.094;2024-03-07T07:19:03;6.60;91.30
26254;DHT22;53339;51.378;0.094;2024-03-07T07:21:31;6.70;91.40
26254;DHT22;53339;51.378;0.094;2024-03-07T07:23:58;6.70;91.30
26254;DHT22;53339;51.378;0.094;2024-03-07T07:26:26;6.70;91.30
26254;DHT22;53339;51.378;0.094;2024-03-07T07:28:54;6.80;91.40
26254;DHT22;53339;51.378;0.094;2024-03-07T07:31:22;6.90;91.50
26254;DHT22;53339;51.378;0.094;2024-03-07T07:33:49;6.90;91.30
26254;DHT22;53339;51.378;0.094;2024-03-07T07:36:17;6.80;91.20
26254;DHT22;53339;51.378;0.094;2024-03-07T07:38:46;6.90;91.30
26254;DHT22;53339;51.378;0.094;2024-03-07T07:41:14;7.00;91.40
26254;DHT22;53339;51.378;0.094;2024-03-07T07:43:42;7.00;91.30
26254;DHT22;53339;51.378;0.094;2024-03-07T07:46:10;7.00;91.20
26254;DHT22;53339;51.378;0.094;2024-03-07T07:48:38;7.00;91.20
26254;DHT22;53339;51.378;0.094;2024-03-07T07:51:06;7.10;91.30
26254;DHT22;53339;51.378;0.094;2024-03-07T07:53:34;7.10;91.20
26254;DHT22;53339;51.378;0.094;2024-03-07T07:56:02;7.00;91.10
26254;DHT22;53339;51.378;0.094;2024-03-07T07:58:30;7.00;91.10
26254;DHT22;53339;51.378;0.094;2024-03-07T08:00:57;7.10;91.20
26254;DHT22;53339;51.378;0.094;2024-03-07T08:03:25;7.10;91.20
26254;DHT22;53339;51.378;0.094;2024-03-07T08:05:53;7.10;91.10
26254;DHT22;53339;51.378;0.094;2024-03-07T08:08:22;7.10;91.20
26254;DHT22;53339;51.378;0.094;2024-03-07T08:10:50;7.20;91.30
26254;DHT22;53339;51.378;0.094;2024-03-07T08:13:18;7.30;91.30
26254;DHT22;53339;51.378;0.094;2024-03-07T08:15:45;7.30;91.10
26254;DHT22;53339;51.378;0.094;2024-03-07T08:18:16;7.30;91.10
26254;DHT22;53339;51.378;0.094;2024-03-07T08:20:45;7.40;91.20
26254;DHT22;53339;51.378;0.094;2024-03-07T08:23:12;7.50;91.30
26254;DHT22;53339;51.378;0.094;2024-03-07T08:25:40;7.40;91.10
26254;DHT22;53339;51.378;0.094;2024-03-07T08:28:08;7.40;91.10
26254;DHT22;53339;51.378;0.094;2024-03-07T08:30:36;7.40;91.20
26254;DHT22;53339;51.378;0.094;2024-03-07T08:33:04;7.50;91.20
26254;DHT22;53339;51.378;0.094;2024-03-07T08:35:33;7.60;91.10
26254;DHT22;53339;51.378;0.094;2024-03-07T08:38:01;7.50;91.10
26254;DHT22;53339;51.378;0.094;2024-03-07T08:40:30;7.60;91.20
26254;DHT22;53339;51.378;0.094;2024-03-07T08:43:00;7.70;91.20
26254;DHT22;53339;51.378;0.094;2024-03-07T08:45:28;7.70;91.10
26254;DHT22;53339;51.378;0.094;2024-03-07T08:47:57;7.70;91.00
26254;DHT22;53339;51.378;0.094;2024-03-07T08:50:26;7.80;91.10
26254;DHT22;53339;51.378;0.094;2024-03-07T08:52:54;7.90;91.20
26254;DHT22;53339;51.378;0.094;2024-03-07T08:55:23;8.00;91.10
26254;DHT22;53339;51.378;0.094;2024-03-07T08:57:54;8.00;90.90
26254;DHT22;53339;51.378;0.094;2024-03-07T09:00:22;8.00;90.90
26254;DHT22;53339;51.378;0.094;2024-03-07T09:02:52;8.10;91.00
26254;DHT22;53339;51.378;0.094;2024-03-07T09:05:21;8.10;90.80
26254;DHT22;53339;51.378;0.094;2024-03-07T09:07:54;8.00;90.60
26254;DHT22;53339;51.378;0.094;2024-03-07T09:10:22;8.00;90.70
26254;DHT22;53339;51.378;0.094;2024-03-07T09:12:53;8.10;90.80
26254;DHT22;53339;51.378;0.094;2024-03-07T09:15:22;8.10;90.70
26254;DHT22;53339;51.378;0.094;2024-03-07T09:17:51;8.00;90.50
26254;DHT22;53339;51.378;0.094;2024-03-07T09:20:19;8.00;90.60
26254;DHT22;53339;51.378;0.094;2024-03-07T09:22:47;8.10;90.70
26254;DHT22;53339;51.378;0.094;2024-03-07T09:25:21;8.10;90.70
26254;DHT22;53339;51.378;0.094;2024-03-07T09:27:49;8.10;90.40
26254;DHT22;53339;51.378;0.094;2024-03-07T09:30:17;8.10;90.60
26254;DHT22;53339;51.378;0.094;2024-03-07T09:32:49;8.20;90.70
26254;DHT22;53339;51.378;0.094;2024-03-07T09:35:17;8.30;90.70
26254;DHT22;53339;51.378;0.094;2024-03-07T09:37:45;8.40;90.40
26254;DHT22;53339;51.378;0.094;2024-03-07T09:40:13;8.40;90.50
26254;DHT22;53339;51.378;0.094;2024-03-07T09:42:46;8.60;90.70
26254;DHT22;53339;51.378;0.094;2024-03-07T09:45:17;8.70;90.60
26254;DHT22;53339;51.378;0.094;2024-03-07T09:47:47;8.70;90.20
26254;DHT22;53339;51.378;0.094;2024-03-07T09:50:19;8.70;90.30
26254;DHT22;53339;51.378;0.094;2024-03-07T09:52:50;8.90;90.40
26254;DHT22;53339;51.378;0.094;2024-03-07T09:55:20;9.00;90.30
26254;DHT22;53339;51.378;0.094;2024-03-07T09:57:49;9.10;89.80
26254;DHT22;53339;51.378;0.094;2024-03-07T10:00:19;9.20;90.00
26254;DHT22;53339;51.378;0.094;2024-03-07T10:03:12;9.30;90.10
26254;DHT22;53339;51.378;0.094;2024-03-07T10:05:41;9.40;89.80
26254;DHT22;53339;51.378;0.094;2024-03-07T10:08:09;9.30;89.20
26254;DHT22;53339;51.378;0.094;2024-03-07T10:10:38;9.30;89.40
26254;DHT22;53339;51.378;0.094;2024-03-07T10:13:06;9.40;89.50
26254;DHT22;53339;51.378;0.094;2024-03-07T10:15:35;9.40;89.40
26254;DHT22;53339;51.378;0.094;2024-03-07T10:18:07;9.40;88.80
26254;DHT22;53339;51.378;0.094;2024-03-07T10:20:36;9.40;89.10
26254;DHT22;53339;51.378;0.094;2024-03-07T10:23:04;9.50;89.30
26254;DHT22;53339;51.378;0.094;2024-03-07T10:25:34;9.60;89.50
26254;DHT22;53339;51.378;0.094;2024-03-07T10:28:03;9.60;88.80
26254;DHT22;53339;51.378;0.094;2024-03-07T10:30:40;9.60;88.80
26254;DHT22;53339;51.378;0.094;2024-03-07T10:33:08;9.70;89.00
26254;DHT22;53339;51.378;0.094;2024-03-07T10:35:36;9.90;89.10
26254;DHT22;53339;51.378;0.094;2024-03-07T10:38:04;10.00;88.50
26254;DHT22;53339;51.378;0.094;2024-03-07T10:40:34;9.90;88.30
26254;DHT22;53339;51.378;0.094;2024-03-07T10:43:11;10.00;88.50
26254;DHT22;53339;51.378;0.094;2024-03-07T10:45:46;10.10;88.60
26254;DHT22;53339;51.378;0.094;2024-03-07T10:48:19;10.20;87.80
26254;DHT22;53339;51.378;0.094;2024-03-07T10:51:20;10.10;87.50
26254;DHT22;53339;51.378;0.094;2024-03-07T10:59:38;9.80;87.10
26254;DHT22;53339;51.378;0.094;2024-03-07T11:02:37;9.70;87.60
26254;DHT22;53339;51.378;0.094;2024-03-07T11:05:13;9.70;87.90
26254;DHT22;53339;51.378;0.094;2024-03-07T11:07:43;9.70;87.70
26254;DHT22;53339;51.378;0.094;2024-03-07T11:10:12;9.70;87.50
26254;DHT22;53339;51.378;0.094;2024-03-07T11:12:41;9.70;88.00
26254;DHT22;53339;51.378;0.094;2024-03-07T11:15:11;9.70;88.00
26254;DHT22;53339;51.378;0.094;2024-03-07T11:17:46;9.80;88.20
26254;DHT22;53339;51.378;0.094;2024-03-07T11:20:34;9.90;87.70
26254;DHT22;53339;51.378;0.094;2024-03-07T11:23:28;10.00;87.90
26254;DHT22;53339;51.378;0.094;2024-03-07T11:26:03;10.20;88.10
26254;DHT22;53339;51.378;0.094;2024-03-07T11:28:41;10.30;87.40
26254;DHT22;53339;51.378;0.094;2024-03-07T11:34:14;10.40;87.30
26254;DHT22;53339;51.378;0.094;2024-03-07T11:36:45;10.60;87.40
26254;DHT22;53339;51.378;0.094;2024-03-07T11:39:45;10.60;86.50
26254;DHT22;53339;51.378;0.094;2024-03-07T11:42:27;10.60;86.60
26254;DHT22;53339;51.378;0.094;2024-03-07T11:44:57;10.70;87.30
26254;DHT22;53339;51.378;0.094;2024-03-07T11:47:26;10.70;87.10
26254;DHT22;53339;51.378;0.094;2024-03-07T11:49:57;10.70;86.00
26254;DHT22;53339;51.378;0.094;2024-03-07T11:52:27;10.70;86.50
26254;DHT22;53339;51.378;0.094;2024-03-07T11:54:55;10.70;86.70
26254;DHT22;53339;51.378;0.094;2024-03-07T11:57:31;10.80;86.70
26254;DHT22;53339;51.378;0.094;2024-03-07T12:00:03;10.80;85.70
26254;DHT22;53339;51.378;0.094;2024-03-07T12:02:40;10.70;85.70
26254;DHT22;53339;51.378;0.094;2024-03-07T12:05:08;10.90;86.30
26254;DHT22;53339;51.378;0.094;2024-03-07T12:07:36;11.00;86.30
26254;DHT22;53339;51.378;0.094;2024-03-07T12:10:06;11.00;85.00
26254;DHT22;53339;51.378;0.094;2024-03-07T12:12:36;10.90;84.40
26254;DHT22;53339;51.378;0.094;2024-03-07T12:15:07;10.90;84.80
26254;DHT22;53339;51.378;0.094;2024-03-07T12:17:49;10.80;84.60
26254;DHT22;53339;51.378;0.094;2024-03-07T12:20:18;10.80;84.10
26254;DHT22;53339;51.378;0.094;2024-03-07T12:23:00;10.70;84.70
26254;DHT22;53339;51.378;0.094;2024-03-07T12:25:40;10.70;85.00
26254;DHT22;53339;51.378;0.094;2024-03-07T12:28:11;10.80;84.90
26254;DHT22;53339;51.378;0.094;2024-03-07T12:33:13;10.70;84.30
26254;DHT22;53339;51.378;0.094;2024-03-07T12:35:45;10.90;85.20
26254;DHT22;53339;51.378;0.094;2024-03-07T12:38:13;11.00;85.20
26254;DHT22;53339;51.378;0.094;2024-03-07T12:40:43;11.10;83.50
26254;DHT22;53339;51.378;0.094;2024-03-07T12:45:51;11.00;83.10
26254;DHT22;53339;51.378;0.094;2024-03-07T12:48:20;11.10;83.60
26254;DHT22;53339;51.378;0.094;2024-03-07T12:50:53;11.20;82.50
26254;DHT22;53339;51.378;0.094;2024-03-07T12:53:24;11.30;83.00
26254;DHT22;53339;51.378;0.094;2024-03-07T12:55:53;11.40;82.90
26254;DHT22;53339;51.378;0.094;2024-03-07T12:58:21;11.50;82.30
26254;DHT22;53339;51.378;0.094;2024-03-07T13:00:54;11.50;81.60
26254;DHT22;53339;51.378;0.094;2024-03-07T13:03:25;11.40;81.90
26254;DHT22;53339;51.378;0.094;2024-03-07T13:05:58;11.40;82.20
26254;DHT22;53339;51.378;0.094;2024-03-07T13:08:29;11.50;82.50
26254;DHT22;53339;51.378;0.094;2024-03-07T13:10:58;11.50;81.70
26254;DHT22;53339;51.378;0.094;2024-03-07T13:13:27;11.50;81.80
26254;DHT22;53339;51.378;0.094;2024-03-07T13:15:54;11.40;82.40
26254;DHT22;53339;51.378;0.094;2024-03-07T13:18:23;11.60;82.50
26254;DHT22;53339;51.378;0.094;2024-03-07T13:20:51;11.60;81.80
26254;DHT22;53339;51.378;0.094;2024-03-07T13:23:19;11.60;81.60
26254;DHT22;53339;51.378;0.094;2024-03-07T13:25:47;11.50;82.30
26254;DHT22;53339;51.378;0.094;2024-03-07T13:28:16;11.60;83.10
26254;DHT22;53339;51.378;0.094;2024-03-07T13:30:45;11.50;81.20
26254;DHT22;53339;51.378;0.094;2024-03-07T13:33:16;11.40;80.90
26254;DHT22;53339;51.378;0.094;2024-03-07T13:35:44;11.30;81.50
26254;DHT22;53339;51.378;0.094;2024-03-07T13:38:12;11.30;82.00
26254;DHT22;53339;51.378;0.094;2024-03-07T13:40:40;11.30;81.10
26254;DHT22;53339;51.378;0.094;2024-03-07T13:43:08;11.20;80.40
26254;DHT22;53339;51.378;0.094;2024-03-07T13:45:36;11.30;82.20
26254;DHT22;53339;51.378;0.094;2024-03-07T13:48:11;11.40;82.70
26254;DHT22;53339;51.378;0.094;2024-03-07T13:50:43;11.50;81.50
26254;DHT22;53339;51.378;0.094;2024-03-07T13:53:21;11.30;80.10
26254;DHT22;53339;51.378;0.094;2024-03-07T14:01:28;11.10;82.00
26254;DHT22;53339;51.378;0.094;2024-03-07T14:07:27;10.70;82.10
26254;DHT22;53339;51.378;0.094;2024-03-07T14:13:46;10.70;81.00
26254;DHT22;53339;51.378;0.094;2024-03-07T14:25:38;11.00;80.60
26254;DHT22;53339;51.378;0.094;2024-03-07T14:28:48;10.90;81.10
26254;DHT22;53339;51.378;0.094;2024-03-07T14:31:23;11.00;81.20
26254;DHT22;53339;51.378;0.094;2024-03-07T14:36:59;11.20;82.00
26254;DHT22;53339;51.378;0.094;2024-03-07T14:39:30;11.80;81.90
26254;DHT22;53339;51.378;0.094;2024-03-07T14:42:04;12.60;80.50
26254;DHT22;53339;51.378;0.094;2024-03-07T14:44:37;13.20;79.00
26254;DHT22;53339;51.378;0.094;2024-03-07T14:47:08;13.70;77.80
26254;DHT22;53339;51.378;0.094;2024-03-07T14:49:39;13.90;79.10
26254;DHT22;53339;51.378;0.094;2024-03-07T14:52:07;13.90;77.50
26254;DHT22;53339;51.378;0.094;2024-03-07T14:54:38;14.00;77.10
26254;DHT22;53339;51.378;0.094;2024-03-07T14:57:07;14.30;79.60
26254;DHT22;53339;51.378;0.094;2024-03-07T14:59:38;14.90;79.50
26254;DHT22;53339;51.378;0.094;2024-03-07T15:02:10;15.30;77.60
26254;DHT22;53339;51.378;0.094;2024-03-07T15:04:39;15.10;75.00
26254;DHT22;53339;51.378;0.094;2024-03-07T15:07:09;14.80;76.60
26254;DHT22;53339;51.378;0.094;2024-03-07T15:09:37;14.70;75.40
26254;DHT22;53339;51.378;0.094;2024-03-07T15:12:06;14.70;76.10
26254;DHT22;53339;51.378;0.094;2024-03-07T15:14:34;14.60;75.00
26254;DHT22;53339;51.378;0.094;2024-03-07T15:17:04;14.40;77.70
26254;DHT22;53339;51.378;0.094;2024-03-07T15:19:34;14.20;77.20
26254;DHT22;53339;51.378;0.094;2024-03-07T15:22:04;13.90;76.60
26254;DHT22;53339;51.378;0.094;2024-03-07T15:24:32;13.40;74.10
26254;DHT22;53339;51.378;0.094;2024-03-07T15:27:03;13.00;77.90
26254;DHT22;53339;51.378;0.094;2024-03-07T15:29:32;13.10;79.30
26254;DHT22;53339;51.378;0.094;2024-03-07T15:31:59;13.20;79.40
26254;DHT22;53339;51.378;0.094;2024-03-07T15:34:30;13.20;77.50
26254;DHT22;53339;51.378;0.094;2024-03-07T15:37:04;12.80;76.80
26254;DHT22;53339;51.378;0.094;2024-03-07T15:39:32;12.50;78.10
26254;DHT22;53339;51.378;0.094;2024-03-07T15:42:05;12.20;77.80
26254;DHT22;53339;51.378;0.094;2024-03-07T15:44:36;11.90;76.80
26254;DHT22;53339;51.378;0.094;2024-03-07T15:47:04;11.70;77.30
26254;DHT22;53339;51.378;0.094;2024-03-07T15:49:38;11.40;78.20
26254;DHT22;53339;51.378;0.094;2024-03-07T15:52:08;11.30;79.00
26254;DHT22;53339;51.378;0.094;2024-03-07T15:54:36;11.30;78.20
26254;DHT22;53339;51.378;0.094;2024-03-07T15:57:04;11.10;78.50
26254;DHT22;53339;51.378;0.094;2024-03-07T15:59:33;11.00;78.80
26254;DHT22;53339;51.378;0.094;2024-03-07T16:02:02;10.90;78.90
26254;DHT22;53339;51.378;0.094;2024-03-07T16:04:31;10.90;79.00
26254;DHT22;53339;51.378;0.094;2024-03-07T16:07:00;11.10;79.30
26254;DHT22;53339;51.378;0.094;2024-03-07T16:09:28;11.40;79.60
26254;DHT22;53339;51.378;0.094;2024-03-07T16:11:56;11.90;79.10
26254;DHT22;53339;51.378;0.094;2024-03-07T16:14:25;12.20;77.40
26254;DHT22;53339;51.378;0.094;2024-03-07T16:16:52;12.30;77.10
26254;DHT22;53339;51.378;0.094;2024-03-07T16:19:21;12.40;77.20
26254;DHT22;53339;51.378;0.094;2024-03-07T16:21:49;12.40;77.40
26254;DHT22;53339;51.378;0.094;2024-03-07T16:24:17;12.20;76.20
26254;DHT22;53339;51.378;0.094;2024-03-07T16:26:45;11.80;75.40
26254;DHT22;53339;51.378;0.094;2024-03-07T16:29:13;11.50;77.80
26254;DHT22;53339;51.378;0.094;2024-03-07T16:31:40;11.40;79.50
26254;DHT22;53339;51.378;0.094;2024-03-07T16:34:11;11.30;78.40
26254;DHT22;53339;51.378;0.094;2024-03-07T16:36:39;11.10;76.70